createdAt,value
2022-09-28T00:01:25.037Z,0.20
2022-09-28T00:04:27.652Z,0.10
2022-09-28T00:07:30.010Z,0.20
2022-09-28T00:10:32.275Z,0.10
2022-09-28T00:13:35.323Z,0.30
2022-09-28T00:16:43.773Z,0.10
2022-09-28T00:19:46.167Z,0.10
2022-09-28T00:22:48.372Z,0.20
2022-09-28T00:25:50.918Z,0.22
2022-09-28T00:28:54.454Z,0.10
2022-09-28T00:32:04.183Z,0.20
2022-09-28T00:35:07.019Z,0.10
2022-09-28T00:38:09.522Z,0.15
2022-09-28T00:41:12.339Z,0.20
2022-09-28T00:44:26.845Z,0.20
2022-09-28T00:47:49.919Z,0.20
2022-09-28T00:50:52.855Z,0.30
2022-09-28T00:53:56.311Z,0.20
2022-09-28T00:56:59.301Z,0.20
2022-09-28T01:00:02.362Z,0.20
2022-09-28T01:03:04.637Z,0.30
2022-09-28T01:06:07.843Z,0.30
2022-09-28T01:09:10.673Z,0.30
2022-09-28T01:12:13.098Z,0.20
2022-09-28T01:15:15.664Z,0.30
2022-09-28T01:18:35.612Z,0.47
2022-09-28T01:22:19.169Z,0.50
2022-09-28T01:25:46.795Z,0.25
2022-09-28T01:28:55.587Z,0.28
2022-09-28T01:32:31.995Z,0.20
2022-09-28T01:35:44.687Z,0.10
2022-09-28T01:38:49.354Z,0.40
2022-09-28T01:41:53.303Z,0.10
2022-09-28T01:45:01.718Z,0.10
2022-09-28T01:48:06.228Z,0.20
2022-09-28T01:51:13.011Z,0.20
2022-09-28T01:54:40.829Z,0.30
2022-09-28T01:57:47.342Z,0.28
2022-09-28T02:00:56.197Z,0.17
2022-09-28T02:04:04.695Z,0.30
2022-09-28T02:07:13.041Z,0.30
2022-09-28T02:10:23.207Z,0.25
2022-09-28T02:13:33.839Z,0.20
2022-09-28T02:16:41.224Z,0.30
2022-09-28T02:19:44.289Z,0.25
2022-09-28T02:22:52.245Z,0.73
2022-09-28T02:26:03.947Z,0.20
2022-09-28T02:29:06.505Z,0.60
2022-09-28T02:32:08.769Z,0.10
2022-09-28T02:35:13.822Z,0.17
2022-09-28T02:38:16.287Z,0.50
2022-09-28T02:41:26.090Z,0.20
2022-09-28T02:44:52.971Z,0.30
2022-09-28T02:48:55.734Z,0.20
2022-09-28T02:51:53.758Z,0.20
2022-09-28T02:55:11.506Z,0.30
2022-09-28T02:58:22.462Z,0.20
2022-09-28T03:01:52.685Z,0.30
2022-09-28T03:04:55.107Z,0.25
2022-09-28T03:08:06.495Z,0.30
2022-09-28T03:11:14.996Z,0.63
2022-09-28T03:14:18.802Z,0.30
2022-09-28T03:17:26.663Z,0.35
2022-09-28T03:20:30.539Z,0.20
2022-09-28T03:23:33.269Z,0.30
2022-09-28T03:26:40.294Z,0.30
2022-09-28T03:29:42.788Z,0.25
2022-09-28T03:32:45.311Z,0.22
2022-09-28T03:35:51.318Z,0.30
2022-09-28T03:38:56.749Z,0.20
2022-09-28T03:42:01.308Z,0.20
2022-09-28T03:45:06.137Z,0.20
2022-09-28T03:48:08.684Z,0.40
2022-09-28T03:51:12.226Z,0.35
2022-09-28T03:54:14.667Z,0.20
2022-09-28T03:57:16.913Z,0.20
2022-09-28T04:00:19.840Z,0.30
2022-09-28T04:03:22.045Z,0.30
2022-09-28T04:06:25.270Z,0.50
2022-09-28T04:09:27.598Z,0.57
2022-09-28T04:12:30.433Z,0.40
2022-09-28T04:15:32.697Z,0.30
2022-09-28T04:18:35.299Z,0.30
2022-09-28T04:21:46.655Z,0.15
2022-09-28T04:24:50.153Z,0.47
2022-09-28T04:28:16.369Z,0.30
2022-09-28T04:31:21.234Z,0.40
2022-09-28T04:34:23.595Z,0.25
2022-09-28T04:37:25.921Z,0.30
2022-09-28T04:40:28.269Z,0.30
2022-09-28T04:43:31.235Z,0.30
2022-09-28T04:46:34.141Z,0.32
2022-09-28T04:49:56.695Z,0.20
2022-09-28T04:53:06.722Z,0.30
2022-09-28T04:56:11.921Z,0.43
2022-09-28T04:59:15.531Z,0.40
2022-09-28T05:02:18.478Z,0.38
2022-09-28T05:05:47.699Z,0.43
2022-09-28T05:09:04.443Z,0.57
2022-09-28T05:12:09.128Z,0.40
2022-09-28T05:15:12.636Z,0.50
2022-09-28T05:18:14.888Z,0.20
2022-09-28T05:21:25.201Z,0.30
2022-09-28T05:24:27.415Z,0.50
2022-09-28T05:27:29.768Z,0.40
2022-09-28T05:30:41.790Z,0.50
2022-09-28T05:34:02.599Z,0.45
2022-09-28T05:37:04.969Z,0.57
2022-09-28T05:40:07.750Z,1.00
2022-09-28T05:43:10.029Z,0.68
2022-09-28T05:46:12.352Z,0.40
2022-09-28T05:49:17.236Z,0.28
2022-09-28T05:52:19.901Z,0.40
2022-09-28T05:55:22.205Z,0.20
2022-09-28T05:58:24.512Z,0.22
2022-09-28T06:01:27.293Z,0.50
2022-09-28T06:04:31.121Z,0.32
2022-09-28T06:07:34.486Z,0.70
2022-09-28T06:10:36.868Z,0.65
2022-09-28T06:13:40.036Z,0.30
2022-09-28T06:16:44.000Z,0.30
2022-09-28T06:19:47.462Z,0.43
2022-09-28T06:23:01.271Z,0.40
2022-09-28T06:26:03.528Z,0.43
2022-09-28T06:29:05.997Z,0.38
2022-09-28T06:32:08.504Z,0.50
2022-09-28T06:35:15.533Z,0.43
2022-09-28T06:38:18.562Z,1.77
2022-09-28T06:41:20.949Z,0.50
2022-09-28T06:44:24.317Z,0.50
2022-09-28T06:47:33.840Z,0.60
2022-09-28T06:50:47.517Z,0.50
2022-09-28T06:54:01.645Z,0.38
2022-09-28T06:57:23.876Z,0.25
2022-09-28T07:00:32.896Z,0.40
2022-09-28T07:03:35.626Z,0.50
2022-09-28T07:06:59.159Z,0.88
2022-09-28T07:10:28.799Z,0.98
2022-09-28T07:13:50.704Z,0.80
2022-09-28T07:17:12.442Z,1.02
2022-09-28T07:20:19.348Z,1.23
2022-09-28T07:23:24.256Z,0.63
2022-09-28T07:26:52.112Z,1.00
2022-09-28T07:30:05.961Z,1.10
2022-09-28T07:33:31.596Z,0.98
2022-09-28T07:36:57.451Z,1.50
2022-09-28T07:40:26.023Z,0.90
2022-09-28T07:43:28.915Z,1.10
2022-09-28T07:46:33.010Z,0.77
2022-09-28T07:49:40.125Z,1.23
2022-09-28T07:53:10.121Z,1.07
2022-09-28T07:56:31.043Z,1.15
2022-09-28T07:59:53.687Z,1.20
2022-09-28T08:03:24.876Z,3.10
2022-09-28T08:06:30.228Z,0.77
2022-09-28T08:09:32.662Z,0.60
2022-09-28T08:13:01.969Z,0.95
2022-09-28T08:16:14.190Z,0.90
2022-09-28T08:20:13.254Z,1.02
2022-09-28T08:23:16.077Z,1.00
2022-09-28T08:26:18.529Z,0.97
2022-09-28T08:29:22.351Z,0.98
2022-09-28T08:32:24.779Z,1.08
2022-09-28T08:36:00.321Z,0.82
2022-09-28T08:39:34.487Z,0.77
2022-09-28T08:42:57.808Z,0.97
2022-09-28T08:46:25.028Z,0.80
2022-09-28T08:49:50.323Z,0.80
2022-09-28T08:52:57.918Z,0.80
2022-09-28T08:56:38.024Z,0.70
2022-09-28T08:59:48.747Z,0.70
2022-09-28T09:02:56.533Z,1.10
2022-09-28T09:06:42.671Z,0.70
2022-09-28T09:10:22.920Z,0.93
2022-09-28T09:13:56.685Z,0.80
2022-09-28T09:17:12.240Z,0.90
2022-09-28T09:20:56.928Z,1.30
2022-09-28T09:24:18.872Z,0.77
2022-09-28T09:27:21.163Z,1.33
2022-09-28T09:30:25.928Z,0.80
2022-09-28T09:33:52.491Z,0.80
2022-09-28T09:37:28.638Z,0.85
2022-09-28T09:44:45.466Z,0.85
2022-09-28T09:48:13.563Z,0.85
2022-09-28T09:51:30.068Z,0.87
2022-09-28T09:54:46.745Z,0.85
2022-09-28T09:58:14.877Z,0.95
2022-09-28T10:01:23.514Z,1.30
2022-09-28T10:04:50.803Z,0.88
2022-09-28T10:08:13.270Z,1.07
2022-09-28T10:11:28.069Z,0.80
2022-09-28T10:14:31.239Z,0.75
2022-09-28T10:17:42.989Z,0.80
2022-09-28T10:21:15.275Z,0.80
2022-09-28T10:24:41.389Z,0.97
2022-09-28T10:27:46.256Z,1.02
2022-09-28T10:30:49.771Z,1.10
2022-09-28T10:33:53.487Z,1.27
2022-09-28T10:37:00.744Z,1.40
2022-09-28T10:40:43.879Z,1.80
2022-09-28T10:44:07.174Z,2.30
2022-09-28T10:47:17.602Z,2.50
2022-09-28T10:50:24.244Z,2.20
2022-09-28T10:53:37.168Z,2.17
2022-09-28T10:57:02.398Z,2.20
2022-09-28T11:00:32.024Z,1.58
2022-09-28T11:03:52.582Z,1.38
2022-09-28T11:10:28.001Z,0.90
2022-09-28T11:14:03.819Z,0.77
2022-09-28T11:17:20.633Z,0.55
2022-09-28T11:20:28.479Z,0.60
2022-09-28T11:23:34.983Z,0.68
2022-09-28T11:26:52.972Z,0.63
2022-09-28T11:29:59.472Z,0.60
2022-09-28T11:33:05.524Z,0.60
2022-09-28T11:37:01.493Z,0.77
2022-09-28T11:40:13.671Z,0.50
2022-09-28T11:43:16.844Z,0.68
2022-09-28T11:46:40.355Z,0.50
2022-09-28T11:49:54.623Z,0.47
2022-09-28T11:53:12.006Z,0.40
2022-09-28T11:56:17.392Z,0.55
2022-09-28T11:59:27.656Z,0.90
2022-09-28T12:02:59.468Z,0.50
2022-09-28T12:06:05.524Z,0.50
2022-09-28T12:09:16.598Z,0.60
2022-09-28T12:12:32.894Z,0.40
2022-09-28T12:16:32.754Z,0.55
2022-09-28T12:19:46.888Z,0.40
2022-09-28T12:23:06.014Z,0.60
2022-09-28T12:26:22.055Z,0.40
2022-09-28T12:29:32.687Z,0.30
2022-09-28T12:32:51.243Z,0.57
2022-09-28T12:36:17.669Z,0.40
2022-09-28T12:40:00.287Z,0.47
2022-09-28T12:43:03.346Z,0.52
2022-09-28T12:46:24.407Z,0.35
2022-09-28T12:53:24.126Z,0.63
2022-09-28T12:56:50.298Z,0.30
2022-09-28T13:00:00.759Z,0.60
2022-09-28T13:03:03.117Z,0.57
2022-09-28T13:06:33.768Z,0.25
2022-09-28T13:09:47.666Z,0.30
2022-09-28T13:13:26.187Z,0.32
2022-09-28T13:16:44.079Z,0.40
2022-09-28T13:19:59.186Z,0.57
2022-09-28T13:23:07.344Z,0.20
2022-09-28T13:26:17.591Z,0.30
2022-09-28T13:29:20.930Z,0.20
2022-09-28T13:32:25.974Z,0.40
2022-09-28T13:35:28.586Z,0.20
2022-09-28T13:38:44.848Z,0.17
2022-09-28T13:41:48.825Z,0.10
2022-09-28T13:45:00.793Z,0.10
2022-09-28T13:48:13.425Z,0.10
2022-09-28T13:51:44.911Z,0.10
2022-09-28T13:54:52.813Z,0.40
2022-09-28T13:58:02.615Z,0.20
2022-09-28T14:01:12.066Z,0.60
2022-09-28T14:04:28.978Z,0.25
2022-09-28T14:08:05.420Z,0.40
2022-09-28T14:11:34.368Z,0.47
2022-09-28T14:14:45.891Z,0.13
2022-09-28T14:17:54.388Z,0.10
2022-09-28T14:21:02.720Z,0.20
2022-09-28T14:24:14.818Z,0.28
2022-09-28T14:27:20.179Z,0.20
2022-09-28T14:30:23.687Z,0.10
2022-09-28T14:33:31.143Z,0.40
2022-09-28T14:37:01.533Z,0.20
2022-09-28T14:40:49.553Z,0.30
2022-09-28T14:44:05.668Z,0.28
2022-09-28T14:47:34.969Z,0.20
2022-09-28T14:50:37.313Z,0.75
2022-09-28T14:53:39.924Z,0.30
2022-09-28T14:56:53.818Z,0.30
2022-09-28T14:59:59.585Z,0.30
2022-09-28T15:03:06.741Z,0.20
2022-09-28T15:06:16.268Z,0.10
2022-09-28T15:09:38.146Z,0.30
2022-09-28T15:12:43.668Z,0.30
2022-09-28T15:15:50.571Z,1.77
2022-09-28T15:19:21.469Z,0.30
2022-09-28T15:22:23.702Z,0.40
2022-09-28T15:25:28.460Z,0.50
2022-09-28T15:28:30.892Z,0.38
2022-09-28T15:31:35.881Z,0.88
2022-09-28T15:34:54.635Z,0.10
2022-09-28T15:37:57.074Z,0.20
2022-09-28T15:41:02.834Z,0.20
2022-09-28T15:44:17.216Z,0.30
2022-09-28T15:47:27.655Z,0.30
2022-09-28T15:50:30.370Z,0.20
2022-09-28T15:53:33.306Z,0.50
2022-09-28T15:56:55.132Z,0.45
2022-09-28T15:59:59.199Z,0.30
2022-09-28T16:03:05.465Z,0.57
2022-09-28T16:06:09.434Z,0.70
2022-09-28T16:09:31.569Z,0.85
2022-09-28T16:12:48.716Z,0.70
2022-09-28T16:15:58.226Z,1.00
2022-09-28T16:19:01.270Z,0.70
2022-09-28T16:22:06.450Z,1.27
2022-09-28T16:25:17.062Z,0.98
2022-09-28T16:28:26.600Z,0.80
2022-09-28T16:31:33.846Z,0.90
2022-09-28T16:34:36.484Z,1.00
2022-09-28T16:37:43.055Z,1.00
2022-09-28T16:40:49.565Z,1.60
2022-09-28T16:44:02.298Z,1.30
2022-09-28T16:47:04.609Z,1.15
2022-09-28T16:50:07.452Z,1.13
2022-09-28T16:53:33.845Z,1.10
2022-09-28T16:56:36.712Z,1.20
2022-09-28T16:59:39.219Z,1.30
2022-09-28T17:02:46.577Z,1.10
2022-09-28T17:05:50.397Z,1.25
2022-09-28T17:08:56.602Z,1.00
2022-09-28T17:11:58.960Z,1.25
2022-09-28T17:15:01.195Z,1.65
2022-09-28T17:18:04.213Z,1.38
2022-09-28T17:21:10.135Z,1.20
2022-09-28T17:24:12.376Z,1.43
2022-09-28T17:27:17.353Z,1.13
2022-09-28T17:30:23.648Z,1.08
2022-09-28T17:33:28.398Z,1.50
2022-09-28T17:36:31.030Z,1.30
2022-09-28T17:39:33.313Z,1.00
2022-09-28T17:42:35.511Z,0.98
2022-09-28T17:45:41.730Z,1.20
2022-09-28T17:48:46.773Z,1.27
2022-09-28T17:51:50.300Z,1.10
2022-09-28T17:54:52.508Z,1.20
2022-09-28T17:57:55.593Z,1.23
2022-09-28T18:00:57.861Z,1.27
2022-09-28T18:04:01.781Z,1.20
2022-09-28T18:07:04.139Z,1.65
2022-09-28T18:10:07.141Z,1.20
2022-09-28T18:13:09.682Z,1.52
2022-09-28T18:16:12.704Z,1.60
2022-09-28T18:19:15.220Z,1.80
2022-09-28T18:22:17.563Z,2.00
2022-09-28T18:25:19.885Z,2.10
2022-09-28T18:28:23.100Z,2.20
2022-09-28T18:31:25.480Z,2.28
2022-09-28T18:34:27.774Z,2.40
2022-09-28T18:37:30.148Z,2.35
2022-09-28T18:40:33.802Z,2.50
2022-09-28T18:43:37.067Z,2.28
2022-09-28T18:46:40.656Z,3.28
2022-09-28T18:49:46.593Z,2.95
2022-09-28T18:52:49.162Z,2.60
2022-09-28T18:55:51.428Z,2.67
2022-09-28T18:58:53.721Z,2.70
2022-09-28T19:01:56.069Z,2.67
2022-09-28T19:04:58.501Z,2.97
2022-09-28T19:08:00.937Z,3.15
2022-09-28T19:11:15.691Z,2.70
2022-09-28T19:14:18.000Z,3.55
2022-09-28T19:17:20.813Z,3.30
2022-09-28T19:20:23.234Z,3.63
2022-09-28T19:23:25.543Z,3.00
2022-09-28T19:26:28.344Z,3.10
2022-09-28T19:29:30.675Z,3.30
2022-09-28T19:32:32.956Z,4.32
2022-09-28T19:35:35.203Z,3.70
2022-09-28T19:38:39.044Z,3.03
2022-09-28T19:41:51.392Z,2.70
2022-09-28T19:44:53.786Z,3.50
2022-09-28T19:47:59.550Z,2.75
2022-09-28T19:51:04.008Z,2.60
2022-09-28T19:54:06.970Z,2.50
2022-09-28T19:57:09.405Z,2.83
2022-09-28T20:00:11.847Z,2.50
2022-09-28T20:03:14.264Z,2.58
2022-09-28T20:06:17.456Z,2.35
2022-09-28T20:09:20.154Z,2.72
2022-09-28T20:12:22.540Z,2.23
2022-09-28T20:15:25.280Z,2.33
2022-09-28T20:18:27.866Z,3.03
2022-09-28T20:21:30.427Z,2.65
2022-09-28T20:24:32.944Z,2.53
2022-09-28T20:27:35.385Z,2.20
2022-09-28T20:30:38.467Z,2.63
2022-09-28T20:33:44.119Z,2.28
2022-09-28T20:36:46.413Z,2.60
2022-09-28T20:39:48.890Z,2.10
2022-09-28T20:42:51.537Z,1.90
2022-09-28T20:45:56.237Z,1.80
2022-09-28T20:48:59.605Z,1.77
2022-09-28T20:52:02.272Z,1.95
2022-09-28T20:55:04.942Z,1.70
2022-09-28T20:58:07.158Z,1.70
2022-09-28T21:01:14.743Z,1.63
2022-09-28T21:04:17.089Z,1.75
2022-09-28T21:07:19.456Z,1.85
2022-09-28T21:10:21.744Z,1.95
2022-09-28T21:13:25.132Z,1.77
2022-09-28T21:16:30.098Z,2.35
2022-09-28T21:19:32.348Z,2.00
2022-09-28T21:22:34.651Z,2.40
2022-09-28T21:25:36.935Z,2.00
2022-09-28T21:28:39.853Z,2.00
2022-09-28T21:31:45.775Z,2.10
2022-09-28T21:34:48.062Z,2.08
2022-09-28T21:37:50.423Z,1.58
2022-09-28T21:40:57.044Z,1.90
2022-09-28T21:43:59.409Z,1.80
2022-09-28T21:47:01.720Z,1.70
2022-09-28T21:50:04.095Z,1.77
2022-09-28T21:53:06.352Z,1.88
2022-09-28T21:56:11.193Z,1.48
2022-09-28T21:59:13.474Z,2.03
2022-09-28T22:02:15.761Z,1.63
2022-09-28T22:05:19.328Z,1.65
2022-09-28T22:08:21.949Z,1.52
2022-09-28T22:11:27.116Z,1.80
2022-09-28T22:14:29.561Z,1.63
2022-09-28T22:17:31.845Z,1.70
2022-09-28T22:20:34.159Z,1.67
2022-09-28T22:23:37.726Z,1.70
2022-09-28T22:26:40.519Z,2.00
2022-09-28T22:29:43.155Z,1.90
2022-09-28T22:32:45.479Z,1.98
2022-09-28T22:35:49.264Z,2.05
2022-09-28T22:38:52.002Z,1.60
2022-09-28T22:41:54.305Z,1.60
2022-09-28T22:44:56.594Z,2.13
2022-09-28T22:47:58.862Z,1.70
2022-09-28T22:51:01.792Z,2.08
2022-09-28T22:54:04.332Z,2.17
2022-09-28T22:57:06.616Z,2.40
2022-09-28T23:00:09.205Z,1.70
2022-09-28T23:03:11.635Z,2.17
2022-09-28T23:06:16.643Z,2.22
2022-09-28T23:09:19.246Z,1.92
2022-09-28T23:12:21.558Z,2.60
2022-09-28T23:15:24.658Z,2.70
2022-09-28T23:18:31.941Z,2.78
2022-09-28T23:21:34.355Z,2.83
2022-09-28T23:24:36.618Z,2.58
2022-09-28T23:27:38.860Z,2.67
2022-09-28T23:30:41.070Z,2.70
2022-09-28T23:33:43.498Z,2.70
2022-09-28T23:36:45.846Z,2.80
2022-09-28T23:39:48.108Z,3.05
2022-09-28T23:42:50.384Z,2.70
2022-09-28T23:45:52.697Z,2.63
2022-09-28T23:48:55.013Z,3.10
2022-09-28T23:51:57.265Z,2.83
2022-09-28T23:54:59.526Z,3.03
2022-09-28T23:58:01.786Z,2.97
